createdAt,value
2016-11-25T00:00:01.075Z,-0.02
2016-11-25T00:01:00.951Z,-0.03
2016-11-25T00:02:02.213Z,-0.03
2016-11-25T00:03:00.757Z,-0.15
2016-11-25T00:04:01.033Z,-0.21
2016-11-25T00:05:01.296Z,-0.15
2016-11-25T00:06:00.791Z,-0.21
2016-11-25T00:07:01.200Z,-0.14
2016-11-25T00:08:01.449Z,-0.11
2016-11-25T00:09:01.198Z,0.07
2016-11-25T00:10:00.618Z,0.31
2016-11-25T00:11:00.676Z,0.49
2016-11-25T00:12:00.789Z,0.63
2016-11-25T00:13:01.368Z,0.73
2016-11-25T00:14:00.936Z,0.66
2016-11-25T00:15:01.570Z,0.62
2016-11-25T00:16:01.229Z,0.47
2016-11-25T00:17:01.235Z,0.52
2016-11-25T00:18:01.851Z,0.6
2016-11-25T00:19:01.512Z,0.7
2016-11-25T00:20:01.472Z,0.44
2016-11-25T00:21:00.880Z,0.46
2016-11-25T00:22:01.254Z,0.47
2016-11-25T00:23:01.589Z,0.37
2016-11-25T00:24:02.294Z,0.18
2016-11-25T00:25:01.505Z,0.08
2016-11-25T00:26:01.049Z,0.05
2016-11-25T00:27:01.129Z,-0.11
2016-11-25T00:28:01.854Z,-0.11
2016-11-25T00:29:02.072Z,-0.17
2016-11-25T00:30:01.588Z,0.04
2016-11-25T00:31:01.119Z,0.18
2016-11-25T00:32:01.083Z,0.29
2016-11-25T00:33:01.354Z,0.43
2016-11-25T00:34:02.247Z,0.41
2016-11-25T00:35:01.503Z,0.46
2016-11-25T00:36:00.933Z,0.6
2016-11-25T00:37:01.486Z,0.63
2016-11-25T00:38:01.546Z,0.59
2016-11-25T00:39:01.917Z,0.52
2016-11-25T00:40:01.799Z,0.58
2016-11-25T00:41:01.676Z,0.44
2016-11-25T00:42:01.379Z,0.62
2016-11-25T00:43:02.427Z,0.39
2016-11-25T00:44:01.181Z,0.55
2016-11-25T00:45:01.413Z,0.4
2016-11-25T00:46:01.468Z,0.23
2016-11-25T00:47:01.402Z,0.12
2016-11-25T00:48:01.389Z,0.11
2016-11-25T00:49:01.739Z,0.03
2016-11-25T00:50:01.607Z,-0.1
2016-11-25T00:51:01.964Z,-0.21
2016-11-25T00:52:01.919Z,-0.14
2016-11-25T00:53:01.770Z,0
2016-11-25T00:54:02.708Z,0.05
2016-11-25T00:55:01.694Z,0.15
2016-11-25T00:56:02.165Z,0.31
2016-11-25T00:57:01.999Z,0.34
2016-11-25T00:58:01.517Z,0.36
2016-11-25T00:59:01.543Z,0.39
2016-11-25T01:00:02.205Z,0.43
2016-11-25T01:01:01.258Z,0.46
2016-11-25T01:02:01.767Z,0.43
2016-11-25T01:03:01.238Z,0.32
2016-11-25T01:04:02.081Z,0.28
2016-11-25T01:05:01.750Z,0.15
2016-11-25T01:06:01.757Z,0.07
2016-11-25T01:07:02.132Z,-0.06
2016-11-25T01:08:01.862Z,-0.08
2016-11-25T01:09:02.143Z,-0.1
2016-11-25T01:10:02.108Z,-0.08
2016-11-25T01:11:02.002Z,-0.1
2016-11-25T01:12:01.719Z,-0.03
2016-11-25T01:13:01.342Z,0.03
2016-11-25T01:14:01.926Z,-0.14
2016-11-25T01:15:01.944Z,-0.15
2016-11-25T01:16:01.893Z,-0.15
2016-11-25T01:17:02.360Z,-0.23
2016-11-25T01:18:02.093Z,-0.25
2016-11-25T01:19:02.266Z,-0.15
2016-11-25T01:20:01.901Z,-0.31
2016-11-25T01:21:01.754Z,-0.47
2016-11-25T01:22:02.581Z,-0.44
2016-11-25T01:23:02.044Z,-0.39
2016-11-25T01:24:01.721Z,-0.29
2016-11-25T01:25:01.803Z,-0.17
2016-11-25T01:26:02.087Z,-0.21
2016-11-25T01:27:02.772Z,-0.32
2016-11-25T01:28:01.585Z,-0.39
2016-11-25T01:29:02.341Z,-0.43
2016-11-25T01:30:02.848Z,-0.44
2016-11-25T01:31:01.748Z,-0.59
2016-11-25T01:32:02.190Z,-0.64
2016-11-25T01:33:02.549Z,-0.64
2016-11-25T01:34:01.944Z,-0.74
2016-11-25T01:35:02.632Z,-0.65
2016-11-25T01:36:02.371Z,-0.74
2016-11-25T01:37:02.760Z,-0.61
2016-11-25T01:38:01.700Z,-0.31
2016-11-25T01:39:01.846Z,-0.32
2016-11-25T01:40:02.521Z,-0.34
2016-11-25T01:41:02.415Z,-0.44
2016-11-25T01:42:01.927Z,-0.49
2016-11-25T01:43:02.435Z,-0.59
2016-11-25T01:44:02.556Z,-0.57
2016-11-25T01:45:02.939Z,-0.64
2016-11-25T01:46:02.558Z,-0.78
2016-11-25T01:47:03.245Z,-0.82
2016-11-25T01:48:02.702Z,-0.77
2016-11-25T01:49:02.054Z,-0.74
2016-11-25T01:50:02.603Z,-0.82
2016-11-25T01:51:02.029Z,-0.9
2016-11-25T01:52:02.547Z,-0.8
2016-11-25T01:53:01.804Z,-0.82
2016-11-25T01:54:02.313Z,-0.86
2016-11-25T01:55:02.300Z,-0.85
2016-11-25T01:56:02.488Z,-0.89
2016-11-25T01:57:03.227Z,-0.77
2016-11-25T01:58:02.450Z,-0.68
2016-11-25T01:59:01.951Z,-0.38
2016-11-25T02:00:02.884Z,-0.41
2016-11-25T02:01:02.249Z,-0.31
2016-11-25T02:02:02.276Z,-0.31
2016-11-25T02:03:02.779Z,-0.31
2016-11-25T02:04:02.215Z,-0.17
2016-11-25T02:05:03.202Z,-0.32
2016-11-25T02:06:02.219Z,-0.36
2016-11-25T02:07:03.500Z,-0.43
2016-11-25T02:08:02.192Z,-0.5
2016-11-25T02:09:02.158Z,-0.56
2016-11-25T02:10:02.852Z,-0.49
2016-11-25T02:11:03.425Z,-0.41
2016-11-25T02:12:02.523Z,-0.39
2016-11-25T02:13:02.644Z,-0.36
2016-11-25T02:14:02.901Z,-0.32
2016-11-25T02:15:02.506Z,-0.23
2016-11-25T02:16:02.211Z,-0.34
2016-11-25T02:17:02.899Z,-0.44
2016-11-25T02:18:02.583Z,-0.39
2016-11-25T02:19:03.674Z,-0.36
2016-11-25T02:20:02.550Z,-0.29
2016-11-25T02:21:03.109Z,-0.34
2016-11-25T02:22:02.424Z,-0.46
2016-11-25T02:23:03.227Z,-0.57
2016-11-25T02:24:02.845Z,-0.57
2016-11-25T02:25:02.554Z,-0.67
2016-11-25T02:26:02.482Z,-0.67
2016-11-25T02:27:02.940Z,-0.67
2016-11-25T02:28:03.446Z,-0.57
2016-11-25T02:29:03.255Z,-0.7
2016-11-25T02:30:02.917Z,-0.7
2016-11-25T02:31:03.342Z,-0.65
2016-11-25T02:32:03.187Z,-0.65
2016-11-25T02:33:03.429Z,-0.72
2016-11-25T02:34:03.735Z,-0.77
2016-11-25T02:35:02.428Z,-0.91
2016-11-25T02:36:03.579Z,-0.89
2016-11-25T02:37:03.433Z,-1.01
2016-11-25T02:38:03.269Z,-1.01
2016-11-25T02:39:02.809Z,-0.82
2016-11-25T02:40:02.820Z,-0.83
2016-11-25T02:41:03.376Z,-0.82
2016-11-25T02:42:03.026Z,-0.99
2016-11-25T02:43:02.627Z,-1.01
2016-11-25T02:44:02.821Z,-1.01
2016-11-25T02:45:03.584Z,-1.07
2016-11-25T02:46:03.775Z,-1.07
2016-11-25T02:47:03.239Z,-1.09
2016-11-25T02:48:02.762Z,-1.04
2016-11-25T02:49:03.703Z,-0.9
2016-11-25T02:50:04.182Z,-0.89
2016-11-25T02:51:04.058Z,-0.74
2016-11-25T02:52:03.196Z,-0.89
2016-11-25T02:53:03.253Z,-0.83
2016-11-25T02:54:03.216Z,-0.89
2016-11-25T02:55:02.877Z,-1.02
2016-11-25T02:56:03.592Z,-0.9
2016-11-25T02:57:02.748Z,-1.05
2016-11-25T02:58:02.984Z,-0.82
2016-11-25T02:59:03.475Z,-0.65
2016-11-25T03:00:03.548Z,-0.65
2016-11-25T03:01:02.830Z,-0.75
2016-11-25T03:02:02.761Z,-0.64
2016-11-25T03:03:03.052Z,-0.77
2016-11-25T03:04:03.368Z,-0.8
2016-11-25T03:05:02.921Z,-0.9
2016-11-25T03:06:03.331Z,-0.91
2016-11-25T03:07:02.805Z,-1.04
2016-11-25T03:08:03.722Z,-1.09
2016-11-25T03:09:03.631Z,-1.07
2016-11-25T03:10:03.620Z,-1.08
2016-11-25T03:11:03.941Z,-0.97
2016-11-25T03:12:03.720Z,-0.94
2016-11-25T03:13:03.658Z,-1.12
2016-11-25T03:14:03.535Z,-1.17
2016-11-25T03:15:02.956Z,-1.23
2016-11-25T03:16:03.570Z,-1.29
2016-11-25T03:17:03.723Z,-1.27
2016-11-25T03:18:03.941Z,-1.29
2016-11-25T03:19:03.792Z,-1.29
2016-11-25T03:20:03.498Z,-1.26
2016-11-25T03:21:03.765Z,-1.33
2016-11-25T03:22:03.906Z,-1.3
2016-11-25T03:23:03.896Z,-1.19
2016-11-25T03:24:04.104Z,-1.15
2016-11-25T03:25:03.582Z,-1.08
2016-11-25T03:26:03.821Z,-0.9
2016-11-25T03:27:04.453Z,-0.89
2016-11-25T03:28:03.829Z,-0.8
2016-11-25T03:29:03.718Z,-0.85
2016-11-25T03:30:03.463Z,-0.97
2016-11-25T03:31:03.883Z,-0.97
2016-11-25T03:32:03.840Z,-1.05
2016-11-25T03:33:03.888Z,-1.09
2016-11-25T03:34:03.787Z,-1.09
2016-11-25T03:35:03.220Z,-1.01
2016-11-25T03:36:03.971Z,-1.02
2016-11-25T03:37:03.810Z,-1.02
2016-11-25T03:38:04.547Z,-1.05
2016-11-25T03:39:04.247Z,-1.17
2016-11-25T03:40:04.198Z,-1.19
2016-11-25T03:41:04.370Z,-1.29
2016-11-25T03:42:03.619Z,-1.26
2016-11-25T03:43:03.758Z,-1.32
2016-11-25T03:44:03.991Z,-1.44
2016-11-25T03:45:04.056Z,-1.3
2016-11-25T03:46:03.648Z,-1.11
2016-11-25T03:47:04.057Z,-1.05
2016-11-25T03:48:03.551Z,-0.97
2016-11-25T03:49:06.504Z,-1.02
2016-11-25T03:50:04.131Z,-0.94
2016-11-25T03:51:03.651Z,-0.9
2016-11-25T03:52:03.842Z,-0.78
2016-11-25T03:53:04.497Z,-0.65
2016-11-25T03:54:03.849Z,-0.74
2016-11-25T03:55:04.066Z,-0.75
2016-11-25T03:56:04.777Z,-0.89
2016-11-25T03:57:03.538Z,-1.04
2016-11-25T03:58:04.027Z,-0.96
2016-11-25T03:59:03.504Z,-1.07
2016-11-25T04:00:04.383Z,-0.97
2016-11-25T04:01:04.068Z,-0.91
2016-11-25T04:02:03.774Z,-0.9
2016-11-25T04:03:04.348Z,-0.89
2016-11-25T04:04:04.253Z,-0.9
2016-11-25T04:05:04.300Z,-0.89
2016-11-25T04:06:04.144Z,-1.04
2016-11-25T04:07:04.254Z,-0.86
2016-11-25T04:08:04.414Z,-0.9
2016-11-25T04:09:03.837Z,-0.97
2016-11-25T04:10:04.656Z,-0.9
2016-11-25T04:11:04.472Z,-1.05
2016-11-25T04:12:04.430Z,-0.96
2016-11-25T04:13:04.447Z,-1.02
2016-11-25T04:14:03.557Z,-1.02
2016-11-25T04:15:05.200Z,-0.96
2016-11-25T04:16:04.838Z,-1.01
2016-11-25T04:17:04.303Z,-0.94
2016-11-25T04:18:03.807Z,-0.96
2016-11-25T04:19:03.666Z,-0.91
2016-11-25T04:20:04.826Z,-1.05
2016-11-25T04:21:04.640Z,-1.08
2016-11-25T04:22:03.558Z,-1.08
2016-11-25T04:23:04.401Z,-1.11
2016-11-25T04:24:04.204Z,-1.23
2016-11-25T04:25:04.247Z,-1.19
2016-11-25T04:26:04.607Z,-1.15
2016-11-25T04:27:04.629Z,-1.2
2016-11-25T04:28:04.262Z,-1.26
2016-11-25T04:29:04.294Z,-1.3
2016-11-25T04:30:04.429Z,-1.44
2016-11-25T04:31:04.230Z,-1.46
2016-11-25T04:32:04.307Z,-1.53
2016-11-25T04:33:04.909Z,-1.43
2016-11-25T04:34:04.468Z,-1.35
2016-11-25T04:35:04.036Z,-1.3
2016-11-25T04:36:04.673Z,-1.37
2016-11-25T04:37:04.405Z,-1.35
2016-11-25T04:38:04.692Z,-1.53
2016-11-25T04:39:05.057Z,-1.54
2016-11-25T04:40:03.981Z,-1.54
2016-11-25T04:41:04.168Z,-1.72
2016-11-25T04:42:04.146Z,-1.72
2016-11-25T04:43:04.504Z,-1.76
2016-11-25T04:44:04.844Z,-1.69
2016-11-25T04:45:04.016Z,-1.84
2016-11-25T04:46:04.801Z,-1.87
2016-11-25T04:47:05.203Z,-1.89
2016-11-25T04:48:04.484Z,-1.84
2016-11-25T04:49:04.759Z,-1.9
2016-11-25T04:50:04.465Z,-1.97
2016-11-25T04:51:04.860Z,-1.98
2016-11-25T04:52:03.963Z,-1.98
2016-11-25T04:53:05.095Z,-2
2016-11-25T04:54:04.709Z,-2.04
2016-11-25T04:55:05.193Z,-2.02
2016-11-25T04:56:04.335Z,-2.01
2016-11-25T04:57:04.965Z,-1.95
2016-11-25T04:58:05.140Z,-1.89
2016-11-25T04:59:04.786Z,-1.86
2016-11-25T05:00:04.581Z,-1.92
2016-11-25T05:01:04.581Z,-1.98
2016-11-25T05:02:05.589Z,-1.95
2016-11-25T05:03:04.901Z,-1.92
2016-11-25T05:04:05.632Z,-1.98
2016-11-25T05:05:04.815Z,-2.01
2016-11-25T05:06:04.776Z,-2.07
2016-11-25T05:07:04.316Z,-2.1
2016-11-25T05:08:05.007Z,-2.19
2016-11-25T05:09:03.759Z,-2.12
2016-11-25T05:10:04.159Z,-1.95
2016-11-25T05:11:05.947Z,-1.9
2016-11-25T05:12:05.520Z,-1.77
2016-11-25T05:13:05.012Z,-1.82
2016-11-25T05:14:05.492Z,-1.74
2016-11-25T05:15:05.278Z,-1.62
2016-11-25T05:16:05.008Z,-1.72
2016-11-25T05:17:05.696Z,-1.58
2016-11-25T05:18:04.735Z,-1.56
2016-11-25T05:19:05.207Z,-1.33
2016-11-25T05:20:05.908Z,-1.22
2016-11-25T05:21:05.227Z,-1.2
2016-11-25T05:22:05.424Z,-1.23
2016-11-25T05:23:05.986Z,-1.27
2016-11-25T05:24:05.278Z,-1.25
2016-11-25T05:25:06.175Z,-1.32
2016-11-25T05:26:05.338Z,-1.3
2016-11-25T05:27:04.881Z,-1.37
2016-11-25T05:28:05.344Z,-1.46
2016-11-25T05:29:05.594Z,-1.48
2016-11-25T05:30:06.238Z,-1.46
2016-11-25T05:31:05.825Z,-1.44
2016-11-25T05:32:05.677Z,-1.44
2016-11-25T05:33:04.779Z,-1.5
2016-11-25T05:34:05.822Z,-1.58
2016-11-25T05:35:05.086Z,-1.47
2016-11-25T05:36:04.094Z,-1.54
2016-11-25T05:37:04.087Z,-1.53
2016-11-25T05:38:04.867Z,-1.77
2016-11-25T05:39:05.478Z,-1.68
2016-11-25T05:40:05.728Z,-1.76
2016-11-25T05:41:05.115Z,-1.71
2016-11-25T05:42:06.082Z,-1.72
2016-11-25T05:43:06.274Z,-1.61
2016-11-25T05:44:05.285Z,-1.47
2016-11-25T05:45:06.219Z,-1.35
2016-11-25T05:46:06.361Z,-1.37
2016-11-25T05:47:05.434Z,-1.38
2016-11-25T05:48:06.028Z,-1.51
2016-11-25T05:49:06.135Z,-1.47
2016-11-25T05:50:06.167Z,-1.58
2016-11-25T05:51:06.554Z,-1.59
2016-11-25T05:52:04.745Z,-1.48
2016-11-25T05:53:05.938Z,-1.44
2016-11-25T05:54:05.870Z,-1.5
2016-11-25T05:55:05.627Z,-1.38
2016-11-25T05:56:04.962Z,-1.4
2016-11-25T05:57:05.847Z,-1.43
2016-11-25T05:58:06.631Z,-1.41
2016-11-25T05:59:05.302Z,-1.41
2016-11-25T06:00:06.113Z,-1.59
2016-11-25T06:01:05.795Z,-1.59
2016-11-25T06:02:05.270Z,-1.62
2016-11-25T06:03:06.008Z,-1.71
2016-11-25T06:04:05.691Z,-1.79
2016-11-25T06:05:06.701Z,-1.71
2016-11-25T06:06:05.417Z,-1.66
2016-11-25T06:07:07.719Z,-1.69
2016-11-25T06:08:06.165Z,-1.74
2016-11-25T06:09:05.474Z,-1.82
2016-11-25T06:10:05.768Z,-1.89
2016-11-25T06:11:05.549Z,-1.97
2016-11-25T06:12:05.712Z,-1.98
2016-11-25T06:13:05.183Z,-1.92
2016-11-25T06:14:06.340Z,-2.12
2016-11-25T06:15:07.381Z,-2.18
2016-11-25T06:16:06.958Z,-2.19
2016-11-25T06:17:06.462Z,-2.25
2016-11-25T06:18:06.274Z,-2.15
2016-11-25T06:19:06.180Z,-2.28
2016-11-25T06:20:07.767Z,-2.3
2016-11-25T06:21:07.359Z,-2.28
2016-11-25T06:25:06.351Z,-2.4
2016-11-25T06:26:07.222Z,-2.26
2016-11-25T06:27:05.978Z,-2.4
2016-11-25T06:28:06.186Z,-2.42
2016-11-25T06:29:06.617Z,-2.44
2016-11-25T06:30:06.212Z,-2.28
2016-11-25T06:31:07.696Z,-2.08
2016-11-25T06:32:06.316Z,-2.08
2016-11-25T06:33:06.143Z,-2
2016-11-25T06:34:06.889Z,-1.97
2016-11-25T06:35:07.124Z,-2
2016-11-25T06:36:07.035Z,-2
2016-11-25T06:37:05.324Z,-2
2016-11-25T06:38:05.713Z,-2.05
2016-11-25T06:39:05.507Z,-2.18
2016-11-25T06:40:05.155Z,-2.23
2016-11-25T06:41:05.548Z,-2.28
2016-11-25T06:42:05.627Z,-2.25
2016-11-25T06:43:05.804Z,-2.35
2016-11-25T06:44:05.790Z,-2.37
2016-11-25T06:45:05.791Z,-2.48
2016-11-25T06:46:05.870Z,-2.44
2016-11-25T06:47:06.916Z,-2.5
2016-11-25T06:48:06.524Z,-2.48
2016-11-25T06:49:06.018Z,-2.53
2016-11-25T06:50:06.776Z,-2.38
2016-11-25T06:51:05.325Z,-2.48
2016-11-25T06:52:06.028Z,-2.4
2016-11-25T06:53:05.918Z,-2.34
2016-11-25T06:54:06.372Z,-2.44
2016-11-25T06:55:06.715Z,-2.38
2016-11-25T06:56:05.992Z,-2.32
2016-11-25T06:57:05.778Z,-2.23
2016-11-25T06:58:06.095Z,-2.19
2016-11-25T06:59:06.306Z,-2.22
2016-11-25T07:00:05.884Z,-2.21
2016-11-25T07:01:05.691Z,-2.26
2016-11-25T07:02:07.022Z,-2.3
2016-11-25T07:03:05.854Z,-2.32
2016-11-25T07:04:05.074Z,-2.28
2016-11-25T07:05:05.388Z,-2.26
2016-11-25T07:06:05.146Z,-2.3
2016-11-25T07:07:05.354Z,-2.3
2016-11-25T07:08:05.445Z,-2.34
2016-11-25T07:09:05.180Z,-2.35
2016-11-25T07:10:05.165Z,-2.4
2016-11-25T07:11:05.142Z,-2.42
2016-11-25T07:12:05.171Z,-2.38
2016-11-25T07:13:05.546Z,-2.38
2016-11-25T07:14:05.488Z,-2.4
2016-11-25T07:15:05.509Z,-2.41
2016-11-25T07:16:05.212Z,-2.58
2016-11-25T07:17:05.220Z,-2.53
2016-11-25T07:18:05.214Z,-2.56
2016-11-25T07:19:05.293Z,-2.58
2016-11-25T07:20:05.628Z,-2.58
2016-11-25T07:21:05.580Z,-2.53
2016-11-25T07:22:06.647Z,-2.6
2016-11-25T07:23:06.695Z,-2.55
2016-11-25T07:24:07.009Z,-2.45
2016-11-25T07:25:06.755Z,-2.37
2016-11-25T07:26:06.689Z,-2.4
2016-11-25T07:27:06.344Z,-2.34
2016-11-25T07:28:05.661Z,-2.42
2016-11-25T07:29:05.418Z,-2.34
2016-11-25T07:30:05.378Z,-2.35
2016-11-25T07:31:05.751Z,-2.26
2016-11-25T07:32:05.425Z,-2.28
2016-11-25T07:33:05.411Z,-2.26
2016-11-25T07:34:05.432Z,-2.16
2016-11-25T07:35:05.431Z,-2.13
2016-11-25T07:36:05.669Z,-2.12
2016-11-25T07:37:05.809Z,-2.05
2016-11-25T07:38:05.458Z,-1.97
2016-11-25T07:39:05.539Z,-2.05
2016-11-25T07:40:05.901Z,-1.95
2016-11-25T07:41:06.676Z,-1.9
2016-11-25T07:42:07.449Z,-1.66
2016-11-25T07:43:07.041Z,-1.66
2016-11-25T07:44:06.213Z,-1.64
2016-11-25T07:45:06.392Z,-1.68
2016-11-25T07:46:06.607Z,-1.66
2016-11-25T07:47:06.782Z,-1.66
2016-11-25T07:48:07.313Z,-1.68
2016-11-25T07:49:06.729Z,-1.69
2016-11-25T07:50:07.081Z,-1.89
2016-11-25T07:51:06.223Z,-1.84
2016-11-25T07:52:06.936Z,-1.8
2016-11-25T07:53:06.243Z,-1.71
2016-11-25T07:54:07.450Z,-1.74
2016-11-25T07:55:07.381Z,-1.64
2016-11-25T07:56:06.794Z,-1.4
2016-11-25T07:57:06.649Z,-1.44
2016-11-25T07:58:07.002Z,-1.4
2016-11-25T07:59:07.321Z,-1.35
2016-11-25T08:00:06.362Z,-1.22
2016-11-25T08:01:06.453Z,-1.22
2016-11-25T08:02:06.984Z,-1.07
2016-11-25T08:03:06.768Z,-1.01
2016-11-25T08:04:06.860Z,-0.96
2016-11-25T08:05:06.949Z,-0.89
2016-11-25T08:06:06.958Z,-0.82
2016-11-25T08:07:06.362Z,-0.77
2016-11-25T08:08:06.820Z,-0.71
2016-11-25T08:09:06.838Z,-0.62
2016-11-25T08:10:07.287Z,-0.56
2016-11-25T08:11:07.430Z,-0.53
2016-11-25T08:12:06.880Z,-0.43
2016-11-25T08:13:06.881Z,-0.39
2016-11-25T08:14:06.814Z,-0.31
2016-11-25T08:15:06.836Z,-0.21
2016-11-25T08:16:06.675Z,-0.2
2016-11-25T08:17:07.165Z,-0.26
2016-11-25T08:18:07.012Z,-0.18
2016-11-25T08:19:07.590Z,-0.14
2016-11-25T08:20:06.760Z,-0.2
2016-11-25T08:21:07.972Z,-0.25
2016-11-25T08:22:06.960Z,-0.15
2016-11-25T08:23:07.457Z,-0.17
2016-11-25T08:24:06.894Z,-0.07
2016-11-25T08:25:07.446Z,0.01
2016-11-25T08:26:07.384Z,0.11
2016-11-25T08:27:07.419Z,0.19
2016-11-25T08:28:07.218Z,0.31
2016-11-25T08:29:06.910Z,0.36
2016-11-25T08:30:07.265Z,0.47
2016-11-25T08:31:07.760Z,0.49
2016-11-25T08:32:07.610Z,0.62
2016-11-25T08:33:07.339Z,0.76
2016-11-25T08:34:07.658Z,0.86
2016-11-25T08:35:07.106Z,1.05
2016-11-25T08:36:07.522Z,1.31
2016-11-25T08:37:06.784Z,1.56
2016-11-25T08:38:07.058Z,1.53
2016-11-25T08:39:07.488Z,1.45
2016-11-25T08:40:07.535Z,1.78
2016-11-25T08:41:07.108Z,1.95
2016-11-25T08:42:07.803Z,1.94
2016-11-25T08:43:07.233Z,1.92
2016-11-25T08:44:07.293Z,1.89
2016-11-25T08:45:07.010Z,1.8
2016-11-25T08:46:07.758Z,1.84
2016-11-25T08:47:07.540Z,1.81
2016-11-25T08:48:07.493Z,2.14
2016-11-25T08:49:07.406Z,2.15
2016-11-25T08:50:07.224Z,2.18
2016-11-25T08:51:07.021Z,2
2016-11-25T08:52:08.478Z,2.36
2016-11-25T08:53:07.469Z,2.33
2016-11-25T08:54:07.457Z,2.6
2016-11-25T08:55:08.037Z,2.6
2016-11-25T08:56:07.324Z,2.95
2016-11-25T08:57:07.621Z,3.25
2016-11-25T08:58:08.297Z,3.6
2016-11-25T08:59:07.330Z,3.95
2016-11-25T09:00:07.705Z,4.2
2016-11-25T09:01:07.443Z,4.5
2016-11-25T09:02:07.793Z,4.67
2016-11-25T09:03:07.562Z,4.82
2016-11-25T09:04:07.925Z,4.86
2016-11-25T09:05:08.163Z,4.73
2016-11-25T09:06:07.877Z,4.82
2016-11-25T09:07:07.338Z,4.87
2016-11-25T09:08:08.314Z,5
2016-11-25T09:09:08.204Z,5.12
2016-11-25T09:10:08.777Z,5.29
2016-11-25T09:11:07.452Z,4.96
2016-11-25T09:12:08.007Z,4.56
2016-11-25T09:13:08.202Z,4.58
2016-11-25T09:14:07.392Z,4.84
2016-11-25T09:15:07.595Z,5
2016-11-25T09:16:08.348Z,5.26
2016-11-25T09:17:07.213Z,5.56
2016-11-25T09:18:07.174Z,5.9
2016-11-25T09:19:07.706Z,6.28
2016-11-25T09:20:08.305Z,6.3
2016-11-25T09:21:08.260Z,6.12
2016-11-25T09:22:09.057Z,6.14
2016-11-25T09:23:07.749Z,6.04
2016-11-25T09:24:08.150Z,6.09
2016-11-25T09:25:07.223Z,5.99
2016-11-25T09:26:07.384Z,6.02
2016-11-25T09:27:07.678Z,5.94
2016-11-25T09:28:08.743Z,5.87
2016-11-25T09:29:09.192Z,5.75
2016-11-25T09:30:08.448Z,5.86
2016-11-25T09:31:08.451Z,6.04
2016-11-25T09:32:08.857Z,6.44
2016-11-25T09:33:08.167Z,6.66
2016-11-25T09:34:07.684Z,6.33
2016-11-25T09:35:08.456Z,6.08
2016-11-25T09:36:08.080Z,6.2
2016-11-25T09:37:08.756Z,6.48
2016-11-25T09:38:08.356Z,6.87
2016-11-25T09:39:08.142Z,6.93
2016-11-25T09:40:09.138Z,6.84
2016-11-25T09:41:07.953Z,6.57
2016-11-25T09:42:07.466Z,6.72
2016-11-25T09:43:07.782Z,7.17
2016-11-25T09:44:07.819Z,7.33
2016-11-25T09:45:08.529Z,7.29
2016-11-25T09:46:08.061Z,6.7
2016-11-25T09:47:08.979Z,6.63
2016-11-25T09:48:09.010Z,6.51
2016-11-25T09:49:07.852Z,6.33
2016-11-25T09:50:08.288Z,6.44
2016-11-25T09:51:08.382Z,6.52
2016-11-25T09:52:08.510Z,6.59
2016-11-25T09:53:08.269Z,6.74
2016-11-25T09:54:08.722Z,7.18
2016-11-25T09:55:08.408Z,7.21
2016-11-25T09:56:08.578Z,6.82
2016-11-25T09:57:08.308Z,7.03
2016-11-25T09:58:08.932Z,6.93
2016-11-25T09:59:08.287Z,7.06
2016-11-25T10:00:08.272Z,7.14
2016-11-25T10:01:08.430Z,7.18
2016-11-25T10:02:08.137Z,7.36
2016-11-25T10:03:09.645Z,7.36
2016-11-25T10:04:08.176Z,7.47
2016-11-25T10:05:08.345Z,7.43
2016-11-25T10:06:08.829Z,7.36
2016-11-25T10:07:08.977Z,7.42
2016-11-25T10:08:08.908Z,7.2
2016-11-25T10:09:08.262Z,6.87
2016-11-25T10:10:08.371Z,7.03
2016-11-25T10:11:08.717Z,7.06
2016-11-25T10:12:08.604Z,7.28
2016-11-25T10:13:08.406Z,7.38
2016-11-25T10:14:09.525Z,7.35
2016-11-25T10:15:09.278Z,7.36
2016-11-25T10:16:08.109Z,7.05
2016-11-25T10:17:08.363Z,7.14
2016-11-25T10:18:08.735Z,7.03
2016-11-25T10:19:09.142Z,7.2
2016-11-25T10:20:08.926Z,7.36
2016-11-25T10:21:09.070Z,7.32
2016-11-25T10:22:08.948Z,7.33
2016-11-25T10:23:08.708Z,7.36
2016-11-25T10:24:09.517Z,7.5
2016-11-25T10:25:08.994Z,7.61
2016-11-25T10:26:08.986Z,7.45
2016-11-25T10:27:09.589Z,7.42
2016-11-25T10:28:09.886Z,7.21
2016-11-25T10:29:09.328Z,7.18
2016-11-25T10:30:09.407Z,7.05
2016-11-25T10:31:09.605Z,6.85
2016-11-25T10:32:09.134Z,6.62
2016-11-25T10:33:09.289Z,6.54
2016-11-25T10:34:09.369Z,6.24
2016-11-25T10:35:09.401Z,6.14
2016-11-25T10:36:08.950Z,6.08
2016-11-25T10:37:09.243Z,5.89
2016-11-25T10:38:09.410Z,5.82
2016-11-25T10:39:09.578Z,5.8
2016-11-25T10:40:08.902Z,5.97
2016-11-25T10:41:08.842Z,6.09
2016-11-25T10:42:09.107Z,6.26
2016-11-25T10:43:09.374Z,6.48
2016-11-25T10:44:08.987Z,6.69
2016-11-25T10:45:09.044Z,6.77
2016-11-25T10:46:08.998Z,6.87
2016-11-25T10:47:09.295Z,6.99
2016-11-25T10:48:10.007Z,7.15
2016-11-25T10:49:09.253Z,7.23
2016-11-25T10:50:08.979Z,7.35
2016-11-25T10:51:09.549Z,7.58
2016-11-25T10:52:09.377Z,7.69
2016-11-25T10:53:10.016Z,7.73
2016-11-25T10:54:10.092Z,7.75
2016-11-25T10:55:09.614Z,7.77
2016-11-25T10:56:09.757Z,7.76
2016-11-25T10:57:09.324Z,7.76
2016-11-25T10:58:09.686Z,7.77
2016-11-25T10:59:09.158Z,7.9
2016-11-25T11:00:09.490Z,7.63
2016-11-25T11:01:09.413Z,8
2016-11-25T11:02:10.868Z,8.49
2016-11-25T11:03:10.047Z,8.81
2016-11-25T11:04:09.851Z,8.84
2016-11-25T11:05:09.633Z,8.89
2016-11-25T11:06:09.370Z,8.91
2016-11-25T11:07:10.116Z,9.22
2016-11-25T11:08:11.206Z,9.31
2016-11-25T11:09:10.323Z,9.16
2016-11-25T11:10:09.291Z,9.37
2016-11-25T11:11:09.718Z,9.16
2016-11-25T11:12:10.213Z,9.5
2016-11-25T11:13:09.254Z,9.48
2016-11-25T11:14:09.979Z,9.16
2016-11-25T11:15:10.115Z,9.19
2016-11-25T11:16:10.087Z,9.19
2016-11-25T11:17:09.556Z,9.03
2016-11-25T11:18:09.510Z,8.87
2016-11-25T11:19:09.405Z,8.69
2016-11-25T11:20:10.515Z,8.63
2016-11-25T11:21:10.253Z,8.64
2016-11-25T11:22:10.155Z,9.31
2016-11-25T11:23:09.294Z,10.09
2016-11-25T11:24:09.834Z,10.04
2016-11-25T11:25:09.780Z,10.44
2016-11-25T11:26:09.764Z,10.74
2016-11-25T11:27:09.613Z,10.76
2016-11-25T11:28:10.743Z,10.35
2016-11-25T11:29:09.951Z,10.53
2016-11-25T11:30:10.758Z,10.94
2016-11-25T11:31:10.345Z,11.12
2016-11-25T11:32:10.249Z,11.5
2016-11-25T11:33:09.867Z,11.8
2016-11-25T11:34:09.984Z,11.77
2016-11-25T11:35:09.574Z,11.55
2016-11-25T11:36:11.101Z,11.3
2016-11-25T11:37:10.207Z,11.1
2016-11-25T11:38:10.051Z,11.47
2016-11-25T11:39:09.731Z,11.48
2016-11-25T11:40:11.513Z,11.45
2016-11-25T11:41:09.813Z,11.63
2016-11-25T11:42:09.940Z,11.9
2016-11-25T11:43:10.796Z,12.42
2016-11-25T11:44:10.613Z,12.73
2016-11-25T11:45:11.225Z,12.73
2016-11-25T11:46:10.454Z,11.77
2016-11-25T11:47:09.949Z,11.62
2016-11-25T11:48:10.081Z,11.43
2016-11-25T11:49:10.188Z,11.75
2016-11-25T11:50:09.933Z,11.91
2016-11-25T11:51:11.149Z,12.2
2016-11-25T11:52:10.653Z,12.02
2016-11-25T11:53:10.483Z,12
2016-11-25T11:54:10.179Z,12.54
2016-11-25T11:55:10.345Z,12.5
2016-11-25T11:56:10.619Z,12.09
2016-11-25T11:57:10.721Z,11.8
2016-11-25T11:58:10.272Z,11.94
2016-11-25T11:59:10.251Z,12.02
2016-11-25T12:00:10.064Z,12.29
2016-11-25T12:01:10.357Z,12.2
2016-11-25T12:02:10.657Z,12.73
2016-11-25T12:03:10.724Z,12.82
2016-11-25T12:04:11.272Z,12.39
2016-11-25T12:05:11.585Z,12.13
2016-11-25T12:06:10.236Z,11.81
2016-11-25T12:07:10.743Z,11.02
2016-11-25T12:08:10.530Z,10.63
2016-11-25T12:09:10.569Z,10.28
2016-11-25T12:10:11.341Z,10.07
2016-11-25T12:11:11.505Z,10.07
2016-11-25T12:12:10.309Z,9.95
2016-11-25T12:13:10.817Z,10.02
2016-11-25T12:14:10.486Z,9.95
2016-11-25T12:15:11.209Z,10.02
2016-11-25T12:16:10.938Z,10.31
2016-11-25T12:17:11.504Z,10.2
2016-11-25T12:18:12.502Z,9.99
2016-11-25T12:19:10.832Z,9.55
2016-11-25T12:20:10.659Z,9.98
2016-11-25T12:21:11.451Z,10.15
2016-11-25T12:22:11.161Z,10.28
2016-11-25T12:23:12.221Z,10.54
2016-11-25T12:24:11.536Z,10.48
2016-11-25T12:25:11.703Z,10.49
2016-11-25T12:26:11.395Z,10.23
2016-11-25T12:27:11.096Z,10.22
2016-11-25T12:28:11.951Z,10.09
2016-11-25T12:29:11.586Z,10.41
2016-11-25T12:30:11.961Z,10.51
2016-11-25T12:31:11.749Z,10.33
2016-11-25T12:32:10.683Z,10.49
2016-11-25T12:33:10.935Z,10.54
2016-11-25T12:34:11.749Z,10.86
2016-11-25T12:35:11.872Z,10.41
2016-11-25T12:36:11.737Z,10.48
2016-11-25T12:37:11.792Z,10.64
2016-11-25T12:38:11.126Z,10.48
2016-11-25T12:39:11.155Z,10.26
2016-11-25T12:40:11.670Z,10.4
2016-11-25T12:41:10.952Z,10.44
2016-11-25T12:42:11.850Z,11.05
2016-11-25T12:43:11.398Z,11.07
2016-11-25T12:44:12.323Z,11.04
2016-11-25T12:45:10.946Z,11.02
2016-11-25T12:46:11.524Z,11.1
2016-11-25T12:47:11.916Z,11
2016-11-25T12:48:12.398Z,11.07
2016-11-25T12:49:12.340Z,11.11
2016-11-25T12:50:11.881Z,10.84
2016-11-25T12:51:11.323Z,10.97
2016-11-25T12:52:12.538Z,10.54
2016-11-25T12:53:12.689Z,10.37
2016-11-25T12:54:11.948Z,10.46
2016-11-25T12:55:11.865Z,10.23
2016-11-25T12:56:12.055Z,9.98
2016-11-25T12:57:12.171Z,9.98
2016-11-25T12:58:11.799Z,10.34
2016-11-25T12:59:11.982Z,10.3
2016-11-25T13:00:12.009Z,10.48
2016-11-25T13:01:11.410Z,10.51
2016-11-25T13:02:12.054Z,10.68
2016-11-25T13:03:11.586Z,10.84
2016-11-25T13:04:11.498Z,11.04
2016-11-25T13:05:12.300Z,11.48
2016-11-25T13:06:12.598Z,11.25
2016-11-25T13:07:11.552Z,10.99